Alfred Station, New York
Current Conditions -  °F | °C
As of 6:22 AM on Tuesday 21 Oct 2014 (Local Time) from KELZ Reporting Station
Light Rain Light Rain  
Wind Chill: 44°   Ceiling: 3300
Heat Index: 47°   Visibility: 10mi
Dew Point: 44°   Wind: 7mph
Humidity: 90%   Direction: 210°SSW
Pressure: 29.8"   Gusts: NA
Location:  42.27°N, 77.76°W
Report Text: KELZ 211022Z AUTO 21006KT 10SM -RA FEW006 BKN033 OVC045 08/07 A2980 RMK AO2 P0000 T00830067
Loading
Personal Weather Stations






























Interactive Weather Map New forecast layout! Learn more

10-Day Weather Forecast

Advertisements
Track Severe Weather on mobile